createdAt,value
2023-04-13T00:02:20.838Z,69.49
2023-04-13T00:04:50.591Z,71.03
2023-04-13T00:07:18.405Z,70.52
2023-04-13T00:09:47.186Z,70.60
2023-04-13T00:12:15.410Z,70.95
2023-04-13T00:14:42.512Z,71.56
2023-04-13T00:17:09.860Z,70.26
2023-04-13T00:19:36.781Z,71.46
2023-04-13T00:22:04.341Z,71.55
2023-04-13T00:24:30.936Z,69.92
2023-04-13T00:26:57.463Z,70.03
2023-04-13T00:29:24.045Z,70.52
2023-04-13T00:31:50.617Z,69.39
2023-04-13T00:34:17.230Z,70.19
2023-04-13T00:36:43.905Z,70.50
2023-04-13T00:39:10.528Z,69.84
2023-04-13T00:41:37.644Z,70.14
2023-04-13T00:44:04.394Z,70.27
2023-04-13T00:46:31.461Z,70.40
2023-04-13T00:49:01.628Z,69.86
2023-04-13T00:51:30.274Z,69.63
2023-04-13T00:53:59.095Z,70.59
2023-04-13T00:56:29.799Z,71.40
2023-04-13T00:58:57.683Z,71.03
2023-04-13T01:01:25.945Z,73.31
2023-04-13T01:03:53.567Z,75.12
2023-04-13T01:06:28.626Z,76.63
2023-04-13T01:09:08.533Z,77.72
2023-04-13T01:11:46.073Z,79.97
2023-04-13T01:14:33.250Z,80.94
2023-04-13T01:17:05.798Z,81.71
2023-04-13T01:19:52.388Z,82.87
2023-04-13T01:22:27.220Z,83.74
2023-04-13T01:25:17.702Z,84.64
2023-04-13T01:28:05.292Z,85.71
2023-04-13T01:30:35.765Z,85.57
2023-04-13T01:33:04.414Z,84.94
2023-04-13T01:35:32.548Z,86.53
2023-04-13T01:37:59.810Z,87.59
2023-04-13T01:40:29.457Z,87.08
2023-04-13T01:42:57.949Z,86.44
2023-04-13T01:45:46.863Z,86.15
2023-04-13T01:48:19.904Z,85.35
2023-04-13T01:51:00.991Z,84.67
2023-04-13T01:54:14.780Z,85.03
2023-04-13T01:56:44.701Z,84.58
2023-04-13T01:59:12.326Z,84.40
2023-04-13T02:01:40.687Z,84.57
2023-04-13T02:04:07.712Z,83.84
2023-04-13T02:06:34.820Z,83.64
2023-04-13T02:09:06.613Z,82.92
2023-04-13T02:11:35.014Z,82.68
2023-04-13T02:14:04.840Z,82.20
2023-04-13T02:16:32.129Z,81.83
2023-04-13T02:18:59.279Z,82.63
2023-04-13T02:21:26.455Z,83.60
2023-04-13T02:23:53.920Z,85.05
2023-04-13T02:26:23.162Z,85.22
2023-04-13T02:28:51.280Z,85.56
2023-04-13T02:31:20.335Z,85.79
2023-04-13T02:33:47.464Z,86.04
2023-04-13T02:36:17.066Z,86.82
2023-04-13T02:38:51.224Z,87.37
2023-04-13T02:41:25.648Z,88.42
2023-04-13T02:43:52.405Z,88.40
2023-04-13T02:46:22.794Z,90.40
2023-04-13T02:48:54.955Z,89.61
2023-04-13T02:51:21.942Z,90.92
2023-04-13T02:53:49.151Z,91.61
2023-04-13T02:56:16.693Z,92.02
2023-04-13T02:58:47.998Z,91.10
2023-04-13T03:01:17.611Z,92.49
2023-04-13T03:03:45.689Z,90.95
2023-04-13T03:06:12.214Z,91.46
2023-04-13T03:08:46.198Z,91.04
2023-04-13T03:11:18.590Z,91.15
2023-04-13T03:13:54.074Z,91.78
2023-04-13T03:16:21.027Z,91.18
2023-04-13T03:18:47.785Z,91.89
2023-04-13T03:21:14.759Z,92.15
2023-04-13T03:23:55.503Z,92.25
2023-04-13T03:26:25.100Z,91.74
2023-04-13T03:28:52.906Z,91.21
2023-04-13T03:31:22.078Z,92.88
2023-04-13T03:33:51.019Z,93.55
2023-04-13T03:36:17.860Z,92.61
2023-04-13T03:38:44.444Z,91.15
2023-04-13T03:41:11.536Z,91.43
2023-04-13T03:43:38.968Z,92.27
2023-04-13T03:46:09.904Z,92.05
2023-04-13T03:48:37.648Z,92.23
2023-04-13T03:51:06.941Z,92.44
2023-04-13T03:53:46.006Z,93.95
2023-04-13T03:56:12.700Z,93.71
2023-04-13T03:58:39.674Z,93.54
2023-04-13T04:01:08.061Z,93.32
2023-04-13T04:03:42.439Z,94.70
2023-04-13T04:06:10.750Z,94.00
2023-04-13T04:08:40.442Z,94.24
2023-04-13T04:11:17.636Z,93.77
2023-04-13T04:13:44.268Z,93.81
2023-04-13T04:16:12.200Z,94.12
2023-04-13T04:18:44.915Z,93.28
2023-04-13T04:21:15.476Z,93.86
2023-04-13T04:23:42.105Z,93.79
2023-04-13T04:26:08.789Z,94.51
2023-04-13T04:28:50.497Z,95.22
2023-04-13T04:31:21.536Z,95.43
2023-04-13T04:33:52.926Z,95.69
2023-04-13T04:36:21.342Z,97.09
2023-04-13T04:38:58.127Z,96.09
2023-04-13T04:41:26.140Z,97.67
2023-04-13T04:43:57.681Z,98.15
2023-04-13T04:46:29.588Z,98.21
2023-04-13T04:49:00.851Z,99.35
2023-04-13T04:51:28.850Z,100.00
2023-04-13T04:53:58.622Z,100.00
2023-04-13T04:56:25.879Z,100.00
2023-04-13T04:58:53.878Z,100.00
2023-04-13T05:01:26.711Z,100.00
2023-04-13T05:04:02.881Z,100.00
2023-04-13T05:06:34.224Z,100.00
2023-04-13T05:09:04.391Z,100.00
2023-04-13T05:11:33.265Z,100.00
2023-04-13T05:14:02.565Z,100.00
2023-04-13T05:16:30.577Z,99.67
2023-04-13T05:19:05.299Z,99.12
2023-04-13T05:21:47.522Z,99.22
2023-04-13T05:24:14.102Z,99.29
2023-04-13T05:26:43.008Z,100.00
2023-04-13T05:29:11.406Z,100.00
2023-04-13T05:31:40.725Z,100.00
2023-04-13T05:34:07.327Z,100.00
2023-04-13T05:36:35.111Z,100.00
2023-04-13T05:39:06.177Z,100.00
2023-04-13T05:41:33.902Z,100.00
2023-04-13T05:44:00.786Z,100.00
2023-04-13T05:46:27.981Z,100.00
2023-04-13T05:48:55.361Z,100.00
2023-04-13T05:51:22.830Z,100.00
2023-04-13T05:53:50.815Z,100.00
2023-04-13T05:56:18.096Z,100.00
2023-04-13T05:58:44.830Z,100.00
2023-04-13T06:01:19.931Z,100.00
2023-04-13T06:03:47.786Z,100.00
2023-04-13T06:06:17.386Z,100.00
2023-04-13T06:08:44.366Z,100.00
2023-04-13T06:11:11.626Z,100.00
2023-04-13T06:13:41.130Z,100.00
2023-04-13T06:16:11.040Z,99.44
2023-04-13T06:18:37.888Z,99.36
2023-04-13T06:21:04.919Z,99.06
2023-04-13T06:23:32.114Z,98.88
2023-04-13T06:26:04.305Z,99.54
2023-04-13T06:28:44.676Z,98.18
2023-04-13T06:31:13.712Z,99.62
2023-04-13T06:33:41.537Z,99.63
2023-04-13T06:36:09.226Z,97.68
2023-04-13T06:38:36.423Z,98.03
2023-04-13T06:41:08.236Z,96.46
2023-04-13T06:43:38.882Z,96.38
2023-04-13T06:46:38.208Z,96.65
2023-04-13T06:49:11.995Z,96.09
2023-04-13T06:51:39.560Z,94.25
2023-04-13T06:54:06.781Z,94.22
2023-04-13T06:56:38.217Z,94.28
2023-04-13T06:59:05.972Z,94.04
2023-04-13T07:01:33.600Z,92.19
2023-04-13T07:04:02.325Z,94.23
2023-04-13T07:06:29.135Z,92.59
2023-04-13T07:08:57.048Z,91.75
2023-04-13T07:11:26.182Z,91.99
2023-04-13T07:13:53.605Z,89.00
2023-04-13T07:16:21.162Z,89.11
2023-04-13T07:18:47.822Z,88.95
2023-04-13T07:21:14.600Z,85.88
2023-04-13T07:23:54.180Z,88.07
2023-04-13T07:26:20.711Z,87.38
2023-04-13T07:28:47.444Z,81.95
2023-04-13T07:31:14.951Z,82.47
2023-04-13T07:33:45.485Z,82.86
2023-04-13T07:36:14.070Z,84.18
2023-04-13T07:38:43.116Z,83.52
2023-04-13T07:41:12.637Z,82.37
2023-04-13T07:43:39.439Z,81.39
2023-04-13T07:46:12.227Z,82.79
2023-04-13T07:48:44.332Z,81.37
2023-04-13T07:51:23.097Z,80.00
2023-04-13T07:53:52.472Z,81.73
2023-04-13T07:56:19.975Z,81.33
2023-04-13T07:58:46.901Z,80.46
2023-04-13T08:01:13.847Z,80.05
2023-04-13T08:03:41.036Z,80.72
2023-04-13T08:06:15.051Z,82.04
2023-04-13T08:08:41.679Z,81.66
2023-04-13T08:11:08.685Z,82.77
2023-04-13T08:13:35.779Z,81.74
2023-04-13T08:16:02.869Z,82.64
2023-04-13T08:18:32.056Z,82.89
2023-04-13T08:20:59.281Z,83.13
2023-04-13T08:23:28.465Z,82.57
2023-04-13T08:25:57.276Z,84.28
2023-04-13T08:28:23.987Z,82.72
2023-04-13T08:30:50.912Z,82.60
2023-04-13T08:33:18.628Z,82.64
2023-04-13T08:35:46.308Z,83.18
2023-04-13T08:38:14.355Z,82.33
2023-04-13T08:40:49.927Z,82.15
2023-04-13T08:43:21.960Z,82.30
2023-04-13T08:45:48.875Z,83.64
2023-04-13T08:48:19.243Z,82.99
2023-04-13T08:50:47.783Z,83.85
2023-04-13T08:53:18.077Z,83.12
2023-04-13T08:55:45.853Z,82.91
2023-04-13T08:58:14.696Z,84.01
2023-04-13T09:00:43.473Z,84.64
2023-04-13T09:03:14.701Z,84.73
2023-04-13T09:05:50.078Z,83.15
2023-04-13T09:08:17.177Z,83.48
2023-04-13T09:10:47.772Z,81.89
2023-04-13T09:13:14.519Z,81.83
2023-04-13T09:15:49.480Z,81.58
2023-04-13T09:18:36.987Z,82.05
2023-04-13T09:21:10.064Z,83.21
2023-04-13T09:23:36.737Z,82.05
2023-04-13T09:26:07.899Z,84.35
2023-04-13T09:28:45.636Z,82.89
2023-04-13T09:31:13.961Z,82.11
2023-04-13T09:33:52.550Z,82.02
2023-04-13T09:36:21.026Z,81.79
2023-04-13T09:38:53.194Z,80.14
2023-04-13T09:41:40.481Z,80.18
2023-04-13T09:44:24.207Z,78.75
2023-04-13T09:47:01.727Z,79.35
2023-04-13T09:49:43.422Z,76.94
2023-04-13T09:52:20.710Z,77.70
2023-04-13T09:54:51.947Z,78.06
2023-04-13T09:57:30.056Z,77.83
2023-04-13T10:00:00.516Z,78.03
2023-04-13T10:02:27.693Z,77.37
2023-04-13T10:04:54.505Z,77.75
2023-04-13T10:07:26.957Z,78.90
2023-04-13T10:09:54.081Z,79.40
2023-04-13T10:12:20.748Z,78.16
2023-04-13T10:14:49.308Z,78.40
2023-04-13T10:17:31.555Z,78.86
2023-04-13T10:20:07.785Z,78.94
2023-04-13T10:22:34.634Z,80.58
2023-04-13T10:25:01.305Z,79.78
2023-04-13T10:27:28.388Z,79.22
2023-04-13T10:29:55.207Z,80.01
2023-04-13T10:32:28.426Z,79.12
2023-04-13T10:34:55.869Z,81.01
2023-04-13T10:37:24.876Z,78.60
2023-04-13T10:40:06.776Z,76.87
2023-04-13T10:42:51.300Z,76.79
2023-04-13T10:45:21.318Z,76.24
2023-04-13T10:47:48.228Z,74.84
2023-04-13T10:50:23.072Z,76.47
2023-04-13T10:53:07.405Z,76.03
2023-04-13T10:55:35.306Z,75.55
2023-04-13T10:58:13.027Z,73.23
2023-04-13T11:00:46.336Z,72.11
2023-04-13T11:03:18.826Z,71.45
2023-04-13T11:05:47.360Z,70.12
2023-04-13T11:08:20.870Z,72.04
2023-04-13T11:10:52.864Z,69.65
2023-04-13T11:13:19.750Z,68.65
2023-04-13T11:15:48.051Z,67.12
2023-04-13T11:18:25.542Z,69.62
2023-04-13T11:20:52.324Z,67.99
2023-04-13T11:23:20.015Z,68.44
2023-04-13T11:25:54.862Z,67.02
2023-04-13T11:28:23.441Z,67.61
2023-04-13T11:30:56.009Z,66.67
2023-04-13T11:33:26.857Z,66.14
2023-04-13T11:35:55.361Z,66.80
2023-04-13T11:38:22.078Z,65.90
2023-04-13T11:40:49.754Z,67.14
2023-04-13T11:43:19.485Z,66.98
2023-04-13T11:45:49.221Z,64.75
2023-04-13T11:48:16.251Z,63.86
2023-04-13T11:50:44.707Z,62.67
2023-04-13T11:53:11.698Z,61.86
2023-04-13T11:55:52.161Z,63.17
2023-04-13T11:58:21.202Z,62.51
2023-04-13T12:00:48.607Z,63.24
2023-04-13T12:06:00.708Z,63.46
2023-04-13T12:08:29.857Z,62.44
2023-04-13T12:11:30.258Z,61.52
2023-04-13T12:14:05.981Z,63.82
2023-04-13T12:19:13.546Z,63.33
2023-04-13T12:21:52.830Z,60.88
2023-04-13T12:24:19.902Z,61.77
2023-04-13T12:29:16.182Z,59.33
2023-04-13T12:31:45.431Z,59.68
2023-04-13T12:34:12.925Z,60.88
2023-04-13T12:36:39.451Z,61.31
2023-04-13T12:39:06.759Z,60.32
2023-04-13T12:41:33.445Z,60.71
2023-04-13T12:44:00.311Z,61.27
2023-04-13T12:46:26.931Z,59.08
2023-04-13T12:48:53.936Z,58.67
2023-04-13T12:51:20.636Z,58.10
2023-04-13T12:53:47.304Z,58.43
2023-04-13T12:56:13.809Z,58.22
2023-04-13T12:58:40.428Z,58.53
2023-04-13T13:01:07.123Z,56.98
2023-04-13T13:03:34.024Z,57.56
2023-04-13T13:06:00.708Z,58.48
2023-04-13T13:08:27.393Z,57.58
2023-04-13T13:10:53.991Z,58.00
2023-04-13T13:13:20.718Z,56.70
2023-04-13T13:15:47.423Z,58.13
2023-04-13T13:18:14.333Z,57.15
2023-04-13T13:20:44.289Z,55.32
2023-04-13T13:23:12.485Z,56.43
2023-04-13T13:25:42.422Z,58.09
2023-04-13T13:28:15.114Z,55.86
2023-04-13T13:30:42.883Z,56.71
2023-04-13T13:33:09.568Z,54.98
2023-04-13T13:35:36.215Z,56.82
2023-04-13T13:38:03.248Z,52.54
2023-04-13T13:40:29.976Z,53.39
2023-04-13T13:42:56.746Z,56.08
2023-04-13T13:45:24.052Z,52.76
2023-04-13T13:47:54.964Z,53.01
2023-04-13T13:50:30.805Z,54.22
2023-04-13T13:53:03.278Z,55.09
2023-04-13T13:55:35.999Z,54.64
2023-04-13T13:58:03.275Z,53.05
2023-04-13T14:00:29.953Z,51.70
2023-04-13T14:02:56.962Z,51.79
2023-04-13T14:05:24.119Z,51.90
2023-04-13T14:07:51.335Z,53.08
2023-04-13T14:10:18.173Z,51.26
2023-04-13T14:12:49.582Z,51.48
2023-04-13T14:15:17.079Z,48.67
2023-04-13T14:17:44.645Z,51.33
2023-04-13T14:20:15.503Z,49.69
2023-04-13T14:22:42.087Z,48.00
2023-04-13T14:25:09.448Z,49.44
2023-04-13T14:27:36.299Z,48.34
2023-04-13T14:30:04.079Z,50.62
2023-04-13T14:32:31.391Z,50.18
2023-04-13T14:34:59.776Z,49.50
2023-04-13T14:37:29.654Z,49.85
2023-04-13T14:39:56.333Z,49.35
2023-04-13T14:42:24.703Z,47.45
2023-04-13T14:44:51.783Z,45.67
2023-04-13T14:47:19.512Z,47.91
2023-04-13T14:49:47.350Z,46.71
2023-04-13T14:52:14.341Z,49.91
2023-04-13T14:54:41.184Z,48.39
2023-04-13T14:57:09.842Z,49.79
2023-04-13T14:59:37.124Z,49.36
2023-04-13T15:02:03.900Z,49.76
2023-04-13T15:04:30.706Z,48.44
2023-04-13T15:06:58.650Z,47.96
2023-04-13T15:09:25.645Z,47.00
2023-04-13T15:11:52.459Z,48.18
2023-04-13T15:14:19.206Z,46.91
2023-04-13T15:16:46.238Z,48.00
2023-04-13T15:19:13.008Z,48.53
2023-04-13T15:21:39.750Z,48.73
2023-04-13T15:24:07.258Z,47.07
2023-04-13T15:26:39.558Z,48.64
2023-04-13T15:29:07.197Z,48.27
2023-04-13T15:31:35.767Z,49.54
2023-04-13T15:34:02.772Z,49.87
2023-04-13T15:36:29.758Z,46.67
2023-04-13T15:38:56.847Z,47.36
2023-04-13T15:41:27.683Z,46.12
2023-04-13T15:43:56.202Z,44.63
2023-04-13T15:46:22.897Z,46.10
2023-04-13T15:48:50.305Z,46.97
2023-04-13T15:51:16.963Z,45.46
2023-04-13T15:53:43.528Z,45.29
2023-04-13T15:56:10.237Z,46.40
2023-04-13T15:58:36.923Z,48.75
2023-04-13T16:01:13.658Z,46.85
2023-04-13T16:03:40.872Z,46.32
2023-04-13T16:06:08.582Z,46.40
2023-04-13T16:08:35.135Z,45.24
2023-04-13T16:11:01.793Z,45.58
2023-04-13T16:13:47.272Z,45.62
2023-04-13T16:16:15.773Z,45.75
2023-04-13T16:18:42.316Z,46.21
2023-04-13T16:21:10.656Z,46.95
2023-04-13T16:23:37.340Z,45.54
2023-04-13T16:26:04.956Z,44.94
2023-04-13T16:28:31.521Z,45.64
2023-04-13T16:30:58.797Z,45.30
2023-04-13T16:33:25.401Z,45.60
2023-04-13T16:35:51.981Z,45.88
2023-04-13T16:38:18.509Z,44.48
2023-04-13T16:40:45.069Z,43.51
2023-04-13T16:43:11.697Z,44.74
2023-04-13T16:45:38.475Z,45.41
2023-04-13T16:48:05.592Z,44.42
2023-04-13T16:50:32.752Z,46.56
2023-04-13T16:52:59.632Z,45.69
2023-04-13T16:55:28.426Z,46.13
2023-04-13T16:57:55.232Z,45.53
2023-04-13T17:00:22.702Z,46.41
2023-04-13T17:02:49.465Z,44.40
2023-04-13T17:05:16.308Z,43.49
2023-04-13T17:07:44.598Z,43.46
2023-04-13T17:10:12.940Z,44.65
2023-04-13T17:12:40.277Z,43.96
2023-04-13T17:15:07.806Z,43.33
2023-04-13T17:17:34.934Z,42.78
2023-04-13T17:20:01.951Z,43.25
2023-04-13T17:22:28.569Z,42.42
2023-04-13T17:24:55.525Z,42.04
2023-04-13T17:27:22.144Z,43.58
2023-04-13T17:29:49.687Z,44.04
2023-04-13T17:32:16.852Z,42.61
2023-04-13T17:34:44.572Z,43.21
2023-04-13T17:37:11.583Z,42.70
2023-04-13T17:39:41.989Z,42.29
2023-04-13T17:42:09.425Z,42.95
2023-04-13T17:44:36.084Z,43.21
2023-04-13T17:47:02.761Z,43.98
2023-04-13T17:49:29.545Z,43.71
2023-04-13T17:51:59.323Z,43.64
2023-04-13T17:54:28.959Z,41.99
2023-04-13T17:56:55.849Z,42.13
2023-04-13T17:59:22.825Z,41.77
2023-04-13T18:01:53.798Z,42.02
2023-04-13T18:04:21.005Z,41.16
2023-04-13T18:06:48.421Z,42.05
2023-04-13T18:09:14.960Z,42.01
2023-04-13T18:11:41.719Z,42.67
2023-04-13T18:14:12.174Z,43.46
2023-04-13T18:16:39.099Z,43.31
2023-04-13T18:19:05.832Z,42.38
2023-04-13T18:21:32.466Z,42.94
2023-04-13T18:24:01.122Z,42.02
2023-04-13T18:26:28.844Z,43.94
2023-04-13T18:28:55.352Z,44.89
2023-04-13T18:31:22.097Z,45.44
2023-04-13T18:33:48.682Z,46.26
2023-04-13T18:36:18.768Z,45.69
2023-04-13T18:38:45.993Z,45.26
2023-04-13T18:41:12.949Z,45.18
2023-04-13T18:43:39.595Z,45.34
2023-04-13T18:46:07.593Z,44.94
2023-04-13T18:48:34.618Z,45.72
2023-04-13T18:51:02.790Z,46.42
2023-04-13T18:53:29.405Z,46.82
2023-04-13T18:55:57.979Z,48.22
2023-04-13T18:58:24.583Z,46.31
2023-04-13T19:00:51.067Z,46.99
2023-04-13T19:03:17.779Z,48.85
2023-04-13T19:05:44.382Z,48.08
2023-04-13T19:08:13.224Z,47.77
2023-04-13T19:10:39.842Z,48.52
2023-04-13T19:13:06.374Z,48.51
2023-04-13T19:15:33.069Z,48.70
2023-04-13T19:18:01.049Z,46.93
2023-04-13T19:20:27.698Z,47.72
2023-04-13T19:22:54.225Z,48.38
2023-04-13T19:25:21.080Z,47.33
2023-04-13T19:27:48.234Z,45.83
2023-04-13T19:30:16.596Z,44.84
2023-04-13T19:32:45.064Z,45.98
2023-04-13T19:35:12.570Z,44.81
2023-04-13T19:37:39.798Z,45.46
2023-04-13T19:40:09.541Z,45.72
2023-04-13T19:42:36.981Z,44.92
2023-04-13T19:45:04.243Z,46.01
2023-04-13T19:47:31.086Z,46.85
2023-04-13T19:49:57.718Z,46.20
2023-04-13T19:52:24.989Z,44.97
2023-04-13T19:54:51.581Z,45.43
2023-04-13T19:57:18.375Z,45.90
2023-04-13T19:59:44.943Z,48.06
2023-04-13T20:02:11.691Z,48.32
2023-04-13T20:04:38.597Z,48.65
2023-04-13T20:07:05.614Z,48.60
2023-04-13T20:09:32.115Z,50.95
2023-04-13T20:11:58.696Z,51.01
2023-04-13T20:14:25.764Z,52.16
2023-04-13T20:16:52.300Z,50.28
2023-04-13T20:19:19.678Z,49.82
2023-04-13T20:21:46.703Z,49.80
2023-04-13T20:24:13.723Z,49.33
2023-04-13T20:26:40.415Z,48.82
2023-04-13T20:29:06.987Z,51.09
2023-04-13T20:31:34.440Z,49.84
2023-04-13T20:34:03.001Z,51.54
2023-04-13T20:36:30.700Z,52.52
2023-04-13T20:39:00.423Z,53.54
2023-04-13T20:41:29.749Z,54.52
2023-04-13T20:43:56.326Z,55.11
2023-04-13T20:46:25.096Z,53.03
2023-04-13T20:48:55.659Z,52.19
2023-04-13T20:51:23.322Z,51.60
2023-04-13T20:53:49.988Z,51.34
2023-04-13T20:56:18.916Z,51.17
2023-04-13T20:58:46.481Z,50.44
2023-04-13T21:01:13.106Z,50.67
2023-04-13T21:03:39.896Z,50.80
2023-04-13T21:06:07.591Z,50.25
2023-04-13T21:08:34.129Z,49.57
2023-04-13T21:11:00.902Z,51.59
2023-04-13T21:13:27.956Z,53.18
2023-04-13T21:15:54.565Z,53.88
2023-04-13T21:18:21.104Z,53.47
2023-04-13T21:20:47.664Z,53.43
2023-04-13T21:23:14.179Z,52.36
2023-04-13T21:25:41.766Z,53.18
2023-04-13T21:28:08.278Z,50.51
2023-04-13T21:30:34.805Z,49.46
2023-04-13T21:33:01.422Z,49.28
2023-04-13T21:35:28.781Z,50.99
2023-04-13T21:37:55.342Z,48.71
2023-04-13T21:40:24.040Z,48.09
2023-04-13T21:42:50.636Z,48.02
2023-04-13T21:45:17.236Z,47.35
2023-04-13T21:47:43.842Z,47.24
2023-04-13T21:50:10.841Z,47.04
2023-04-13T21:52:37.373Z,47.29
2023-04-13T21:55:04.276Z,46.58
2023-04-13T21:57:30.805Z,46.42
2023-04-13T21:59:57.408Z,47.48
2023-04-13T22:02:24.428Z,47.88
2023-04-13T22:04:51.490Z,48.71
2023-04-13T22:07:22.158Z,47.73
2023-04-13T22:09:55.589Z,47.94
2023-04-13T22:12:22.090Z,48.88
2023-04-13T22:14:48.670Z,48.12
2023-04-13T22:17:15.179Z,47.51
2023-04-13T22:19:41.741Z,48.04
2023-04-13T22:22:08.226Z,48.22
2023-04-13T22:24:34.822Z,48.72
2023-04-13T22:27:04.558Z,49.23
2023-04-13T22:29:31.456Z,48.68
2023-04-13T22:32:00.922Z,49.45
2023-04-13T22:34:28.280Z,49.34
2023-04-13T22:36:55.447Z,48.98
2023-04-13T22:39:22.123Z,48.87
2023-04-13T22:41:48.636Z,49.85
2023-04-13T22:44:15.214Z,49.19
2023-04-13T22:46:41.683Z,49.86
2023-04-13T22:49:08.296Z,48.98
2023-04-13T22:51:39.117Z,49.75
2023-04-13T22:54:06.034Z,50.22
2023-04-13T22:56:32.651Z,50.17
2023-04-13T22:58:59.641Z,50.01
2023-04-13T23:01:26.442Z,50.07
2023-04-13T23:03:53.161Z,49.41
2023-04-13T23:06:19.853Z,49.79
2023-04-13T23:08:47.349Z,50.32
2023-04-13T23:11:13.819Z,49.60
2023-04-13T23:13:41.643Z,49.58
2023-04-13T23:16:08.276Z,50.06
2023-04-13T23:18:34.953Z,50.72
2023-04-13T23:21:09.698Z,50.95
2023-04-13T23:23:36.967Z,49.95
2023-04-13T23:26:03.479Z,50.71
2023-04-13T23:28:30.095Z,50.56
2023-04-13T23:31:06.860Z,51.09
2023-04-13T23:33:34.448Z,50.78
2023-04-13T23:36:01.593Z,50.99
2023-04-13T23:38:28.491Z,51.05
2023-04-13T23:40:55.461Z,50.77
2023-04-13T23:43:23.032Z,50.76
2023-04-13T23:45:53.212Z,51.64
2023-04-13T23:48:21.713Z,51.45
2023-04-13T23:50:49.185Z,50.84
2023-04-13T23:53:16.443Z,51.28
2023-04-13T23:55:42.975Z,51.14
2023-04-13T23:58:09.602Z,50.57
